createdAt,value
2023-01-26T00:00:20.582Z,19.30
2023-01-26T00:03:10.987Z,19.30
2023-01-26T00:05:40.669Z,19.30
2023-01-26T00:08:10.422Z,19.30
2023-01-26T00:10:40.574Z,19.40
2023-01-26T00:13:11.653Z,19.40
2023-01-26T00:15:40.503Z,19.40
2023-01-26T00:18:11.782Z,19.40
2023-01-26T00:20:40.742Z,19.40
2023-01-26T00:23:10.044Z,19.40
2023-01-26T00:25:41.186Z,19.50
2023-01-26T00:28:10.322Z,19.40
2023-01-26T00:30:39.167Z,19.40
2023-01-26T00:33:08.233Z,19.40
2023-01-26T00:35:38.478Z,19.40
2023-01-26T00:38:07.593Z,19.40
2023-01-26T00:40:36.615Z,19.40
2023-01-26T00:43:05.913Z,19.40
2023-01-26T00:45:36.656Z,19.40
2023-01-26T00:48:08.340Z,19.40
2023-01-26T00:50:38.536Z,19.40
2023-01-26T00:53:07.639Z,19.30
2023-01-26T00:55:36.507Z,19.30
2023-01-26T00:58:08.718Z,19.40
2023-01-26T01:00:40.072Z,19.30
2023-01-26T01:03:09.646Z,19.30
2023-01-26T01:05:39.883Z,19.30
2023-01-26T01:08:09.153Z,19.30
2023-01-26T01:10:37.932Z,19.30
2023-01-26T01:13:07.109Z,19.30
2023-01-26T01:15:35.914Z,19.30
2023-01-26T01:18:05.209Z,19.40
2023-01-26T01:20:33.999Z,19.40
2023-01-26T01:23:04.455Z,19.40
2023-01-26T01:25:34.797Z,19.40
2023-01-26T01:28:03.853Z,19.40
2023-01-26T01:30:32.743Z,19.40
2023-01-26T01:33:01.832Z,19.40
2023-01-26T01:35:30.622Z,19.40
2023-01-26T01:37:59.851Z,19.40
2023-01-26T01:40:30.073Z,19.50
2023-01-26T01:42:59.193Z,19.50
2023-01-26T01:45:45.585Z,19.50
2023-01-26T01:48:26.385Z,19.50
2023-01-26T01:51:00.201Z,19.50
2023-01-26T01:53:34.926Z,19.50
2023-01-26T01:56:13.315Z,19.50
2023-01-26T01:58:44.523Z,19.50
2023-01-26T02:01:14.040Z,19.50
2023-01-26T02:03:46.580Z,19.50
2023-01-26T02:06:20.071Z,19.50
2023-01-26T02:08:53.081Z,19.50
2023-01-26T02:11:31.652Z,19.50
2023-01-26T02:14:09.150Z,19.50
2023-01-26T02:16:39.982Z,19.50
2023-01-26T02:19:23.332Z,19.50
2023-01-26T02:21:59.166Z,19.50
2023-01-26T02:24:36.857Z,19.40
2023-01-26T02:27:07.984Z,19.50
2023-01-26T02:29:37.283Z,19.40
2023-01-26T02:32:06.681Z,19.50
2023-01-26T02:34:36.131Z,19.50
2023-01-26T02:37:05.235Z,19.50
2023-01-26T02:39:47.306Z,19.50
2023-01-26T02:42:41.952Z,19.50
2023-01-26T02:45:15.663Z,19.50
2023-01-26T02:47:45.976Z,19.50
2023-01-26T02:50:15.698Z,19.50
2023-01-26T02:52:46.375Z,19.60
2023-01-26T02:55:25.246Z,19.50
2023-01-26T02:57:59.207Z,19.60
2023-01-26T03:00:31.984Z,19.60
2023-01-26T03:03:03.141Z,19.60
2023-01-26T03:05:33.339Z,19.60
2023-01-26T03:08:02.257Z,19.60
2023-01-26T03:10:38.375Z,19.70
2023-01-26T03:13:10.093Z,19.70
2023-01-26T03:15:48.100Z,19.70
2023-01-26T03:18:37.378Z,19.70
2023-01-26T03:21:28.905Z,19.70
2023-01-26T03:24:15.493Z,19.70
2023-01-26T03:27:02.941Z,19.70
2023-01-26T03:29:35.901Z,19.70
2023-01-26T03:32:06.104Z,19.70
2023-01-26T03:34:35.870Z,19.70
2023-01-26T03:37:07.177Z,19.70
2023-01-26T03:40:09.840Z,19.70
2023-01-26T03:42:57.166Z,19.70
2023-01-26T03:45:44.756Z,19.70
2023-01-26T03:48:31.990Z,19.60
2023-01-26T03:51:19.941Z,19.60
2023-01-26T03:54:06.388Z,19.60
2023-01-26T03:56:36.261Z,19.60
2023-01-26T03:59:12.287Z,19.60
2023-01-26T04:02:04.610Z,19.50
2023-01-26T04:04:52.629Z,19.60
2023-01-26T04:07:43.053Z,19.60
2023-01-26T04:10:12.879Z,19.60
2023-01-26T04:12:42.043Z,19.60
2023-01-26T04:15:38.338Z,19.60
2023-01-26T04:18:27.774Z,19.60
2023-01-26T04:21:15.695Z,19.60
2023-01-26T04:23:46.416Z,19.60
2023-01-26T04:26:16.463Z,19.60
2023-01-26T04:28:45.838Z,19.60
2023-01-26T04:31:16.316Z,19.60
2023-01-26T04:33:48.337Z,19.60
2023-01-26T04:36:17.846Z,19.50
2023-01-26T04:38:49.632Z,19.50
2023-01-26T04:41:21.737Z,19.50
2023-01-26T04:43:57.286Z,19.50
2023-01-26T04:46:27.017Z,19.50
2023-01-26T04:48:57.223Z,19.40
2023-01-26T04:51:26.527Z,19.40
2023-01-26T04:53:55.907Z,19.40
2023-01-26T04:56:29.328Z,19.40
2023-01-26T04:59:02.175Z,19.50
2023-01-26T05:01:33.034Z,19.50
2023-01-26T05:04:05.707Z,19.50
2023-01-26T05:06:35.886Z,19.50
2023-01-26T05:09:05.569Z,19.50
2023-01-26T05:11:36.586Z,19.50
2023-01-26T05:14:23.228Z,19.50
2023-01-26T05:17:24.555Z,19.50
2023-01-26T05:20:05.395Z,19.40
2023-01-26T05:22:42.333Z,19.40
2023-01-26T05:25:29.614Z,19.40
2023-01-26T05:28:04.997Z,19.40
2023-01-26T05:30:33.935Z,19.40
2023-01-26T05:33:05.114Z,19.40
2023-01-26T05:35:36.215Z,19.40
2023-01-26T05:38:07.841Z,19.40
2023-01-26T05:40:36.772Z,19.40
2023-01-26T05:43:06.394Z,19.40
2023-01-26T05:46:10.615Z,19.40
2023-01-26T05:48:43.669Z,19.40
2023-01-26T05:51:14.550Z,19.40
2023-01-26T05:53:43.671Z,19.40
2023-01-26T05:56:13.105Z,19.40
2023-01-26T05:58:46.650Z,19.40
2023-01-26T06:01:15.635Z,19.40
2023-01-26T06:03:52.207Z,19.40
2023-01-26T06:06:22.465Z,19.50
2023-01-26T06:08:59.048Z,19.50
2023-01-26T06:11:34.815Z,19.50
2023-01-26T06:14:15.108Z,19.50
2023-01-26T06:16:45.887Z,19.50
2023-01-26T06:19:15.313Z,19.50
2023-01-26T06:21:48.659Z,19.50
2023-01-26T06:24:18.236Z,19.50
2023-01-26T06:26:49.566Z,19.50
2023-01-26T06:29:20.114Z,19.50
2023-01-26T06:31:49.128Z,19.50
2023-01-26T06:34:18.768Z,19.50
2023-01-26T06:36:49.229Z,19.50
2023-01-26T06:39:27.942Z,19.50
2023-01-26T06:41:56.936Z,19.50
2023-01-26T06:44:26.170Z,19.50
2023-01-26T06:46:55.053Z,19.50
2023-01-26T06:49:25.959Z,19.40
2023-01-26T06:52:04.265Z,19.50
2023-01-26T06:54:44.752Z,19.50
2023-01-26T06:57:36.590Z,19.50
2023-01-26T07:00:15.175Z,19.50
2023-01-26T07:02:55.772Z,19.50
2023-01-26T07:05:24.896Z,19.50
2023-01-26T07:07:57.293Z,19.50
2023-01-26T07:10:26.483Z,19.40
2023-01-26T07:12:55.337Z,19.40
2023-01-26T07:15:24.456Z,19.40
2023-01-26T07:17:54.651Z,19.40
2023-01-26T07:20:23.774Z,19.40
2023-01-26T07:22:54.336Z,19.40
2023-01-26T07:25:23.433Z,19.40
2023-01-26T07:27:58.301Z,19.30
2023-01-26T07:30:27.883Z,19.30
2023-01-26T07:32:56.675Z,19.20
2023-01-26T07:35:25.838Z,19.20
2023-01-26T07:37:58.019Z,19.20
2023-01-26T07:40:27.212Z,19.20
2023-01-26T07:42:57.481Z,19.30
2023-01-26T07:45:47.310Z,19.20
2023-01-26T07:48:16.759Z,19.20
2023-01-26T07:50:47.725Z,19.20
2023-01-26T07:53:21.328Z,19.20
2023-01-26T07:55:50.664Z,19.20
2023-01-26T07:58:19.694Z,19.20
2023-01-26T08:00:48.843Z,19.20
2023-01-26T08:03:17.810Z,19.20
2023-01-26T08:05:47.900Z,19.20
2023-01-26T08:08:19.424Z,19.20
2023-01-26T08:10:48.504Z,19.20
2023-01-26T08:13:26.537Z,19.20
2023-01-26T08:16:05.280Z,19.20
2023-01-26T08:18:34.162Z,19.20
2023-01-26T08:21:03.272Z,19.20
2023-01-26T08:23:33.499Z,19.20
2023-01-26T08:26:03.482Z,19.20
2023-01-26T08:28:32.644Z,19.30
2023-01-26T08:31:06.559Z,19.40
2023-01-26T08:33:36.310Z,19.40
2023-01-26T08:36:08.975Z,19.40
2023-01-26T08:38:39.335Z,19.40
2023-01-26T08:41:08.669Z,19.40
2023-01-26T08:43:37.621Z,19.40
2023-01-26T08:46:07.683Z,19.40
2023-01-26T08:48:37.450Z,19.40
2023-01-26T08:51:08.846Z,19.40
2023-01-26T08:53:39.479Z,19.30
2023-01-26T08:56:12.393Z,19.30
2023-01-26T08:58:41.502Z,19.20
2023-01-26T09:01:14.586Z,19.20
2023-01-26T09:03:44.775Z,19.20
2023-01-26T09:06:16.009Z,19.20
2023-01-26T09:08:46.382Z,19.20
2023-01-26T09:11:16.065Z,19.20
2023-01-26T09:13:44.948Z,19.20
2023-01-26T09:16:21.014Z,19.30
2023-01-26T09:18:51.958Z,19.20
2023-01-26T09:21:24.033Z,19.20
2023-01-26T09:23:56.607Z,19.30
2023-01-26T09:26:25.735Z,19.30
2023-01-26T09:28:54.673Z,19.30
2023-01-26T09:31:23.953Z,19.40
2023-01-26T09:33:53.078Z,19.30
2023-01-26T09:36:22.309Z,19.30
2023-01-26T09:38:51.685Z,19.30
2023-01-26T09:41:47.428Z,19.30
2023-01-26T09:44:24.975Z,19.30
2023-01-26T09:47:07.859Z,19.30
2023-01-26T09:49:49.433Z,19.30
2023-01-26T09:52:28.701Z,19.40
2023-01-26T09:55:01.699Z,19.40
2023-01-26T09:57:44.196Z,19.50
2023-01-26T10:00:27.132Z,19.50
2023-01-26T10:03:16.665Z,19.50
2023-01-26T10:05:54.594Z,19.50
2023-01-26T10:08:45.111Z,19.60
2023-01-26T10:11:24.803Z,19.70
2023-01-26T10:14:02.922Z,19.70
2023-01-26T10:16:35.452Z,19.70
2023-01-26T10:19:13.755Z,19.70
2023-01-26T10:21:50.479Z,19.70
2023-01-26T10:24:24.957Z,19.70
2023-01-26T10:26:58.751Z,19.60
2023-01-26T10:29:29.175Z,19.60
2023-01-26T10:31:57.978Z,19.60
2023-01-26T10:34:29.120Z,19.50
2023-01-26T10:37:13.190Z,19.50
2023-01-26T10:40:00.807Z,19.60
2023-01-26T10:42:32.508Z,19.50
2023-01-26T10:45:07.914Z,19.50
2023-01-26T10:47:36.839Z,19.50
2023-01-26T10:50:24.813Z,19.50
2023-01-26T10:53:01.950Z,19.50
2023-01-26T10:55:33.329Z,19.50
2023-01-26T10:58:02.839Z,19.40
2023-01-26T11:00:36.513Z,19.40
2023-01-26T11:03:18.568Z,19.40
2023-01-26T11:06:07.204Z,19.40
2023-01-26T11:08:38.476Z,19.40
2023-01-26T11:11:23.087Z,19.40
2023-01-26T11:14:13.996Z,19.40
2023-01-26T11:16:51.283Z,19.50
2023-01-26T11:19:41.845Z,19.40
2023-01-26T11:22:19.783Z,19.50
2023-01-26T11:25:01.633Z,19.50
2023-01-26T11:27:52.206Z,19.60
2023-01-26T11:30:51.216Z,19.60
2023-01-26T11:33:36.529Z,19.60
2023-01-26T11:36:18.048Z,19.60
2023-01-26T11:38:58.827Z,19.60
2023-01-26T11:41:47.937Z,19.60
2023-01-26T11:44:50.567Z,19.50
2023-01-26T11:47:40.859Z,19.40
2023-01-26T11:50:35.143Z,19.40
2023-01-26T11:53:35.431Z,19.30
2023-01-26T11:56:26.436Z,19.40
2023-01-26T11:59:02.881Z,19.40
2023-01-26T12:01:40.543Z,19.40
2023-01-26T12:04:20.916Z,19.40
2023-01-26T12:07:00.129Z,19.60
2023-01-26T12:09:38.965Z,19.60
2023-01-26T12:12:16.320Z,19.70
2023-01-26T12:14:53.612Z,19.70
2023-01-26T12:17:34.997Z,19.80
2023-01-26T12:20:21.424Z,19.80
2023-01-26T12:23:03.417Z,19.80
2023-01-26T12:25:37.865Z,19.90
2023-01-26T12:28:22.019Z,19.90
2023-01-26T12:31:04.218Z,19.80
2023-01-26T12:33:34.896Z,19.90
2023-01-26T12:36:37.037Z,19.90
2023-01-26T12:39:17.627Z,19.90
2023-01-26T12:42:11.322Z,20.00
2023-01-26T12:44:44.240Z,20.00
2023-01-26T12:47:20.815Z,20.00
2023-01-26T12:50:00.138Z,20.00
2023-01-26T12:52:38.217Z,20.00
2023-01-26T12:55:19.593Z,20.00
2023-01-26T12:57:56.861Z,20.00
2023-01-26T13:00:31.040Z,20.00
2023-01-26T13:03:05.925Z,19.90
2023-01-26T13:05:37.434Z,19.90
2023-01-26T13:08:42.728Z,19.90
2023-01-26T13:11:45.409Z,19.90
2023-01-26T13:14:37.508Z,19.90
2023-01-26T13:17:51.261Z,19.90
2023-01-26T13:20:44.240Z,19.90
2023-01-26T13:23:43.176Z,19.90
2023-01-26T13:26:45.861Z,19.90
2023-01-26T13:29:36.239Z,19.90
2023-01-26T13:33:05.576Z,19.90
2023-01-26T13:35:36.927Z,19.90
2023-01-26T13:38:19.172Z,19.80
2023-01-26T13:40:50.810Z,19.80
2023-01-26T13:43:32.179Z,19.80
2023-01-26T13:46:12.230Z,19.80
2023-01-26T13:48:47.997Z,19.80
2023-01-26T13:51:21.775Z,19.80
2023-01-26T13:54:05.209Z,19.80
2023-01-26T13:56:37.400Z,19.80
2023-01-26T13:59:11.942Z,19.80
2023-01-26T14:01:46.837Z,19.80
2023-01-26T14:04:21.300Z,19.70
2023-01-26T14:06:57.907Z,19.70
2023-01-26T14:09:31.546Z,19.70
2023-01-26T14:12:04.956Z,19.70
2023-01-26T14:14:38.532Z,19.70
2023-01-26T14:17:28.649Z,19.70
2023-01-26T14:19:59.986Z,19.70
2023-01-26T14:22:29.460Z,19.70
2023-01-26T14:24:58.476Z,19.60
2023-01-26T14:27:36.765Z,19.60
2023-01-26T14:30:26.831Z,19.60
2023-01-26T14:33:05.661Z,19.60
2023-01-26T14:35:34.913Z,19.50
2023-01-26T14:38:15.599Z,19.40
2023-01-26T14:40:49.067Z,19.40
2023-01-26T14:43:19.297Z,19.40
2023-01-26T14:45:56.527Z,19.40
2023-01-26T14:48:32.959Z,19.40
2023-01-26T14:51:06.862Z,19.40
2023-01-26T14:53:36.186Z,19.40
2023-01-26T14:56:05.637Z,19.40
2023-01-26T14:58:35.461Z,19.30
2023-01-26T15:01:05.892Z,19.30
2023-01-26T15:03:38.881Z,19.30
2023-01-26T15:06:20.541Z,19.20
2023-01-26T15:09:22.605Z,19.20
2023-01-26T15:12:26.061Z,19.30
2023-01-26T15:15:00.124Z,19.30
2023-01-26T15:17:38.680Z,19.30
2023-01-26T15:20:39.513Z,19.30
2023-01-26T15:23:29.175Z,19.30
2023-01-26T15:26:07.575Z,19.30
2023-01-26T15:28:38.681Z,19.30
2023-01-26T15:31:09.137Z,19.30
2023-01-26T15:33:46.267Z,19.40
2023-01-26T15:36:33.415Z,19.30
2023-01-26T15:39:14.276Z,19.40
2023-01-26T15:41:44.772Z,19.40
2023-01-26T15:44:17.650Z,19.40
2023-01-26T15:46:47.436Z,19.40
2023-01-26T15:49:19.978Z,19.40
2023-01-26T15:51:49.115Z,19.40
2023-01-26T15:54:17.924Z,19.40
2023-01-26T15:56:47.086Z,19.40
2023-01-26T15:59:15.883Z,19.30
2023-01-26T16:01:45.550Z,19.40
2023-01-26T16:04:15.534Z,19.40
2023-01-26T16:06:46.005Z,19.30
2023-01-26T16:09:14.808Z,19.40
2023-01-26T16:11:50.964Z,19.30
2023-01-26T16:14:20.693Z,19.30
2023-01-26T16:16:49.959Z,19.30
2023-01-26T16:19:33.739Z,19.20
2023-01-26T16:22:05.669Z,19.30
2023-01-26T16:24:34.581Z,19.30
2023-01-26T16:27:03.848Z,19.30
2023-01-26T16:29:33.329Z,19.30
2023-01-26T16:32:03.370Z,19.30
2023-01-26T16:34:32.225Z,19.30
2023-01-26T16:37:01.333Z,19.30
2023-01-26T16:39:31.505Z,19.30
2023-01-26T16:42:00.587Z,19.30
2023-01-26T16:44:34.909Z,19.40
2023-01-26T16:47:05.899Z,19.40
2023-01-26T16:49:34.806Z,19.40
2023-01-26T16:52:04.018Z,19.40
2023-01-26T16:54:34.272Z,19.40
2023-01-26T16:57:03.386Z,19.40
2023-01-26T16:59:32.271Z,19.40
2023-01-26T17:02:02.363Z,19.40
2023-01-26T17:04:31.331Z,19.40
2023-01-26T17:07:00.520Z,19.40
2023-01-26T17:09:29.700Z,19.40
2023-01-26T17:12:00.154Z,19.30
2023-01-26T17:14:28.997Z,19.30
2023-01-26T17:16:58.168Z,19.30
2023-01-26T17:19:27.100Z,19.30
2023-01-26T17:21:56.283Z,19.30
2023-01-26T17:24:25.353Z,19.30
2023-01-26T17:26:54.831Z,19.30
2023-01-26T17:29:25.013Z,19.30
2023-01-26T17:31:54.176Z,19.30
2023-01-26T17:34:23.148Z,19.30
2023-01-26T17:36:52.402Z,19.30
2023-01-26T17:39:21.575Z,19.30
2023-01-26T17:41:50.935Z,19.30
2023-01-26T17:44:19.743Z,19.30
2023-01-26T17:46:50.247Z,19.20
2023-01-26T17:49:21.210Z,19.20
2023-01-26T17:51:50.298Z,19.10
2023-01-26T17:54:19.279Z,19.10
2023-01-26T17:56:48.612Z,19.00
2023-01-26T17:59:17.755Z,19.00
2023-01-26T18:01:46.891Z,19.00
2023-01-26T18:04:17.056Z,19.00
2023-01-26T18:06:46.311Z,19.00
2023-01-26T18:09:15.245Z,19.00
2023-01-26T18:11:44.355Z,19.00
2023-01-26T18:14:13.251Z,18.90
2023-01-26T18:16:42.453Z,18.90
2023-01-26T18:19:11.389Z,18.90
2023-01-26T18:21:41.977Z,18.90
2023-01-26T18:24:11.959Z,18.90
2023-01-26T18:26:41.158Z,18.90
2023-01-26T18:29:10.733Z,18.90
2023-01-26T18:31:41.754Z,18.90
2023-01-26T18:34:12.948Z,18.90
2023-01-26T18:36:43.380Z,19.00
2023-01-26T18:39:16.786Z,19.00
2023-01-26T18:41:46.201Z,19.00
2023-01-26T18:44:14.987Z,19.00
2023-01-26T18:46:44.063Z,19.10
2023-01-26T18:49:12.859Z,19.10
2023-01-26T18:51:47.924Z,19.10
2023-01-26T18:54:17.911Z,19.10
2023-01-26T18:56:47.309Z,19.10
2023-01-26T18:59:16.995Z,19.00
2023-01-26T19:01:46.113Z,19.10
2023-01-26T19:04:17.919Z,19.10
2023-01-26T19:06:48.723Z,19.00
2023-01-26T19:09:17.575Z,19.10
2023-01-26T19:11:46.677Z,19.10
2023-01-26T19:14:15.732Z,19.10
2023-01-26T19:16:47.687Z,19.10
2023-01-26T19:19:16.781Z,19.20
2023-01-26T19:21:45.966Z,19.30
2023-01-26T19:24:16.158Z,19.20
2023-01-26T19:26:45.377Z,19.30
2023-01-26T19:29:14.282Z,19.30
2023-01-26T19:31:43.498Z,19.30
2023-01-26T19:34:16.954Z,19.40
2023-01-26T19:36:46.975Z,19.40
2023-01-26T19:39:17.192Z,19.40
2023-01-26T19:41:46.842Z,19.40
2023-01-26T19:44:15.700Z,19.40
2023-01-26T19:46:44.930Z,19.50
2023-01-26T19:49:15.097Z,19.50
2023-01-26T19:51:44.222Z,19.50
2023-01-26T19:54:13.855Z,19.50
2023-01-26T19:56:44.499Z,19.50
2023-01-26T19:59:13.907Z,19.50
2023-01-26T20:01:43.036Z,19.50
2023-01-26T20:04:15.662Z,19.50
2023-01-26T20:06:44.844Z,19.60
2023-01-26T20:09:13.690Z,19.50
2023-01-26T20:11:44.203Z,19.50
2023-01-26T20:14:13.393Z,19.50
2023-01-26T20:16:42.515Z,19.50
2023-01-26T20:19:14.149Z,19.50
2023-01-26T20:21:43.505Z,19.50
2023-01-26T20:24:15.062Z,19.50
2023-01-26T20:26:46.877Z,19.50
2023-01-26T20:29:19.177Z,19.50
2023-01-26T20:31:49.783Z,19.50
2023-01-26T20:34:21.164Z,19.50
2023-01-26T20:36:50.795Z,19.50
2023-01-26T20:39:25.234Z,19.50
2023-01-26T20:41:56.271Z,19.50
2023-01-26T20:44:25.157Z,19.50
2023-01-26T20:46:54.250Z,19.50
2023-01-26T20:49:23.295Z,19.50
2023-01-26T20:51:52.447Z,19.50
2023-01-26T20:54:21.307Z,19.50
2023-01-26T20:56:51.430Z,19.50
2023-01-26T20:59:22.633Z,19.50
2023-01-26T21:01:51.823Z,19.50
2023-01-26T21:04:20.817Z,19.60
2023-01-26T21:06:50.034Z,19.50
2023-01-26T21:09:18.957Z,19.60
2023-01-26T21:11:48.126Z,19.50
2023-01-26T21:14:16.941Z,19.50
2023-01-26T21:16:47.451Z,19.40
2023-01-26T21:19:16.243Z,19.40
2023-01-26T21:21:46.042Z,19.50
2023-01-26T21:24:14.854Z,19.40
2023-01-26T21:26:44.001Z,19.40
2023-01-26T21:29:16.164Z,19.40
2023-01-26T21:31:48.869Z,19.50
2023-01-26T21:34:17.760Z,19.50
2023-01-26T21:36:46.829Z,19.50
2023-01-26T21:39:16.185Z,19.50
2023-01-26T21:41:57.406Z,19.50
2023-01-26T21:44:28.930Z,19.50
2023-01-26T21:47:02.066Z,19.50
2023-01-26T21:49:31.490Z,19.50
2023-01-26T21:52:18.268Z,19.50
2023-01-26T21:54:47.064Z,19.50
2023-01-26T21:57:33.724Z,19.50
2023-01-26T22:00:03.290Z,19.60
2023-01-26T22:02:35.228Z,19.50
2023-01-26T22:05:04.228Z,19.50
2023-01-26T22:07:33.488Z,19.50
2023-01-26T22:10:02.441Z,19.50
2023-01-26T22:12:31.499Z,19.50
2023-01-26T22:15:00.451Z,19.50
2023-01-26T22:17:29.605Z,19.50
2023-01-26T22:19:59.807Z,19.40
2023-01-26T22:22:29.908Z,19.50
2023-01-26T22:24:59.767Z,19.40
2023-01-26T22:27:29.200Z,19.40
2023-01-26T22:29:57.977Z,19.40
2023-01-26T22:32:27.100Z,19.40
2023-01-26T22:34:55.895Z,19.40
2023-01-26T22:37:26.435Z,19.40
2023-01-26T22:39:55.353Z,19.40
2023-01-26T22:42:24.546Z,19.40
2023-01-26T22:44:53.395Z,19.40
2023-01-26T22:47:22.466Z,19.40
2023-01-26T22:49:51.569Z,19.40
2023-01-26T22:52:20.652Z,19.30
2023-01-26T22:54:50.855Z,19.30
2023-01-26T22:57:19.939Z,19.30
2023-01-26T22:59:49.381Z,19.20
2023-01-26T23:02:18.833Z,19.30
2023-01-26T23:04:47.668Z,19.20
2023-01-26T23:07:16.885Z,19.30
2023-01-26T23:09:45.652Z,19.30
2023-01-26T23:12:16.094Z,19.30
2023-01-26T23:14:44.909Z,19.30
2023-01-26T23:17:14.024Z,19.30
2023-01-26T23:19:42.912Z,19.30
2023-01-26T23:22:11.991Z,19.20
2023-01-26T23:25:00.837Z,19.30
2023-01-26T23:27:31.659Z,19.30
2023-01-26T23:30:03.073Z,19.20
2023-01-26T23:32:32.526Z,19.20
2023-01-26T23:35:01.311Z,19.20
2023-01-26T23:37:30.476Z,19.20
2023-01-26T23:39:59.279Z,19.10
2023-01-26T23:42:28.482Z,19.10
2023-01-26T23:44:58.646Z,19.10
2023-01-26T23:47:27.861Z,19.10
2023-01-26T23:49:56.858Z,19.10
2023-01-26T23:52:25.949Z,19.10
2023-01-26T23:54:54.709Z,19.00
2023-01-26T23:57:24.030Z,19.10
2023-01-26T23:59:52.795Z,19.10
